Climatologie pour Saint-Brevin les Pins
Jour • Résumé pour février 3, 2017 Système :  Métrique    Anglais   Mixte
« - 1 jour
+ 1 jour »
Jour Semaine Mois Année Personnalisé
  Maximum : Minimum : Moyenne :
Température sous abri : 10.7 °C 7.1 °C 8.9 °C
Point de rosée : 9.4 °C 5.6 °C 7.3 °C
Humidité : 94 % 84 % 90 %
Vitesse du vent : 43.4 km/h 1.6 km/h 14.8 km/h
Rafale : 69.2 km/h - -
Direction :- - SSW
Pression : 1003.6 hPa 990.4 hPa -
Précipitations : 6.9 mm    
Historical Graphs
 
 
Tableau de données pour février 3, 2017
Heure Tempé Pt rosée Pression Vent Vitesse Rafale Humidité Taux pluie (/hr) Soleil
00:00 8.9 °C 7.4 °C 1002.9 hPa West 8.0 km/h 27.4 km/h 90 % 0.3 mm 0 W/m2
00:10 8.4 °C 6.7 °C 1002.9 hPa West 11.3 km/h 17.7 km/h 89 % 0.3 mm 0 W/m2
00:15 8.3 °C 6.7 °C 1002.9 hPa SW 11.3 km/h 16.1 km/h 90 % 0.3 mm 0 W/m2
00:20 8.2 °C 6.6 °C 1002.9 hPa SW 4.8 km/h 14.5 km/h 90 % 0.3 mm 0 W/m2
00:25 8.1 °C 6.7 °C 1002.9 hPa WSW 6.4 km/h 14.5 km/h 91 % 0.3 mm 0 W/m2
00:30 8.1 °C 6.7 °C 1002.9 hPa WSW 8.0 km/h 12.9 km/h 91 % 0.3 mm 0 W/m2
00:35 8.2 °C 6.8 °C 1002.9 hPa SW 3.2 km/h 12.9 km/h 91 % 0.0 mm 0 W/m2
00:40 8.1 °C 6.9 °C 1002.9 hPa WNW 8.0 km/h 12.9 km/h 92 % 0.0 mm 0 W/m2
00:45 8.2 °C 6.9 °C 1003.3 hPa WSW 6.4 km/h 12.9 km/h 92 % 0.0 mm 0 W/m2
00:50 8.2 °C 6.9 °C 1003.3 hPa SSW 6.4 km/h 12.9 km/h 92 % 0.0 mm 0 W/m2
00:55 8.2 °C 6.8 °C 1002.9 hPa WSW 4.8 km/h 11.3 km/h 91 % 0.0 mm 0 W/m2
01:00 8.3 °C 6.9 °C 1003.6 hPa SSW 11.3 km/h 16.1 km/h 91 % 0.0 mm 0 W/m2
01:05 8.3 °C 6.7 °C 1003.6 hPa NW 6.4 km/h 35.4 km/h 90 % 0.0 mm 0 W/m2
01:10 7.7 °C 6.0 °C 1003.6 hPa SW 11.3 km/h 35.4 km/h 89 % 0.3 mm 0 W/m2
01:15 7.4 °C 5.7 °C 1003.3 hPa West 8.0 km/h 19.3 km/h 89 % 0.5 mm 0 W/m2
01:20 7.2 °C 5.6 °C 1003.3 hPa SW 1.6 km/h 17.7 km/h 90 % 0.5 mm 0 W/m2
01:25 7.1 °C 5.7 °C 1003.3 hPa SSW 1.6 km/h 12.9 km/h 91 % 0.5 mm 0 W/m2
01:30 7.1 °C 5.7 °C 1003.3 hPa SSW 3.2 km/h 11.3 km/h 91 % 0.5 mm 0 W/m2
01:35 7.2 °C 6.0 °C 1002.9 hPa SSW 6.4 km/h 11.3 km/h 92 % 0.5 mm 0 W/m2
01:40 7.3 °C 6.1 °C 1002.9 hPa South 4.8 km/h 11.3 km/h 92 % 0.5 mm 0 W/m2
01:45 7.3 °C 6.2 °C 1002.9 hPa SSW 11.3 km/h 14.5 km/h 93 % 0.5 mm 0 W/m2
01:50 7.4 °C 6.4 °C 1002.9 hPa South 6.4 km/h 16.1 km/h 93 % 0.5 mm 0 W/m2
01:55 7.5 °C 6.4 °C 1002.9 hPa South 6.4 km/h 16.1 km/h 93 % 0.5 mm 0 W/m2
02:00 7.6 °C 6.5 °C 1002.9 hPa SSW 6.4 km/h 14.5 km/h 93 % 0.5 mm 0 W/m2
02:05 7.6 °C 6.5 °C 1002.9 hPa SSW 6.4 km/h 14.5 km/h 93 % 0.5 mm 0 W/m2
02:10 7.6 °C 6.6 °C 1002.6 hPa SSW 6.4 km/h 11.3 km/h 93 % 0.3 mm 0 W/m2
02:15 7.7 °C 6.7 °C 1002.9 hPa SSW 3.2 km/h 11.3 km/h 93 % 0.0 mm 0 W/m2
02:20 7.8 °C 6.7 °C 1002.9 hPa SW 12.9 km/h 12.9 km/h 93 % 0.0 mm 0 W/m2
02:25 7.9 °C 6.9 °C 1002.9 hPa SSW 11.3 km/h 17.7 km/h 93 % 0.0 mm 0 W/m2
02:30 8.1 °C 7.0 °C 1002.9 hPa South 11.3 km/h 17.7 km/h 93 % 0.0 mm 0 W/m2
02:35 8.1 °C 7.0 °C 1002.9 hPa SSW 1.6 km/h 14.5 km/h 93 % 0.0 mm 0 W/m2
02:40 8.1 °C 7.0 °C 1002.9 hPa SSW 4.8 km/h 14.5 km/h 93 % 0.0 mm 0 W/m2
02:45 8.1 °C 7.0 °C 1002.9 hPa SSW 11.3 km/h 20.9 km/h 93 % 0.0 mm 0 W/m2
02:50 8.2 °C 7.2 °C 1002.6 hPa SW 8.0 km/h 20.9 km/h 93 % 0.0 mm 0 W/m2
02:55 8.3 °C 7.1 °C 1002.6 hPa SSW 4.8 km/h 17.7 km/h 92 % 0.0 mm 0 W/m2
03:00 8.3 °C 7.1 °C 1002.6 hPa SSW 11.3 km/h 17.7 km/h 92 % 0.0 mm 0 W/m2
03:05 8.3 °C 7.1 °C 1002.6 hPa SSW 9.7 km/h 20.9 km/h 92 % 0.0 mm 0 W/m2
03:10 8.3 °C 6.9 °C 1002.9 hPa South 8.0 km/h 20.9 km/h 91 % 0.0 mm 0 W/m2
03:15 8.3 °C 6.9 °C 1002.9 hPa SW 12.9 km/h 17.7 km/h 91 % 0.0 mm 0 W/m2
03:20 8.2 °C 6.8 °C 1002.6 hPa SSW 8.0 km/h 17.7 km/h 91 % 0.0 mm 0 W/m2
03:25 8.2 °C 6.8 °C 1002.6 hPa SSE 8.0 km/h 17.7 km/h 91 % 0.0 mm 0 W/m2
03:30 8.1 °C 6.7 °C 1002.3 hPa SSE 8.0 km/h 16.1 km/h 91 % 0.0 mm 0 W/m2
03:35 8.1 °C 6.8 °C 1002.3 hPa South 11.3 km/h 16.1 km/h 92 % 0.0 mm 0 W/m2
03:40 8.0 °C 6.8 °C 1002.3 hPa South 8.0 km/h 16.1 km/h 92 % 0.0 mm 0 W/m2
03:45 8.1 °C 6.8 °C 1001.9 hPa SSW 11.3 km/h 20.9 km/h 92 % 0.0 mm 0 W/m2
03:50 8.1 °C 6.9 °C 1001.9 hPa SSW 12.9 km/h 20.9 km/h 92 % 0.0 mm 0 W/m2
03:55 8.2 °C 6.9 °C 1001.9 hPa SSE 9.7 km/h 19.3 km/h 92 % 0.0 mm 0 W/m2
04:00 8.3 °C 7.1 °C 1001.9 hPa South 12.9 km/h 20.9 km/h 92 % 0.0 mm 0 W/m2
04:10 8.3 °C 7.1 °C 1001.9 hPa SSW 9.7 km/h 19.3 km/h 92 % 0.0 mm 0 W/m2
04:20 8.5 °C 7.3 °C 1001.6 hPa SSW 17.7 km/h 29.0 km/h 92 % 0.0 mm 0 W/m2
04:25 8.6 °C 7.3 °C 1001.6 hPa SSW 11.3 km/h 19.3 km/h 92 % 0.0 mm 0 W/m2
04:30 8.6 °C 7.4 °C 1001.2 hPa SW 9.7 km/h 19.3 km/h 92 % 0.0 mm 0 W/m2
04:35 8.7 °C 7.4 °C 1001.2 hPa SSW 12.9 km/h 19.3 km/h 92 % 0.0 mm 0 W/m2
04:40 8.7 °C 7.3 °C 1001.2 hPa South 11.3 km/h 20.9 km/h 91 % 0.0 mm 0 W/m2
04:45 8.7 °C 7.3 °C 1001.2 hPa South 9.7 km/h 20.9 km/h 91 % 0.0 mm 0 W/m2
04:50 8.7 °C 7.3 °C 1000.9 hPa South 9.7 km/h 20.9 km/h 91 % 0.0 mm 0 W/m2
04:55 8.7 °C 7.2 °C 1000.9 hPa South 12.9 km/h 22.5 km/h 90 % 0.0 mm 0 W/m2
05:00 8.7 °C 7.2 °C 1000.6 hPa South 17.7 km/h 22.5 km/h 90 % 0.0 mm 0 W/m2
05:05 8.8 °C 7.2 °C 1000.6 hPa SSW 8.0 km/h 22.5 km/h 90 % 0.0 mm 0 W/m2
05:10 8.8 °C 7.1 °C 1000.6 hPa South 9.7 km/h 24.1 km/h 89 % 0.0 mm 0 W/m2
05:15 8.8 °C 7.2 °C 1000.6 hPa South 9.7 km/h 24.1 km/h 90 % 0.0 mm 0 W/m2
05:20 8.8 °C 7.3 °C 1000.2 hPa South 12.9 km/h 19.3 km/h 90 % 0.0 mm 0 W/m2
05:25 8.9 °C 7.4 °C 1000.2 hPa SSW 8.0 km/h 24.1 km/h 90 % 0.0 mm 0 W/m2
05:30 9.1 °C 7.3 °C 999.9 hPa SSE 8.0 km/h 24.1 km/h 89 % 0.0 mm 0 W/m2
05:35 9.1 °C 7.3 °C 999.9 hPa South 8.0 km/h 25.7 km/h 89 % 0.0 mm 0 W/m2
05:40 9.0 °C 7.3 °C 999.9 hPa SSE 22.5 km/h 25.7 km/h 89 % 0.0 mm 0 W/m2
05:45 9.1 °C 7.5 °C 999.9 hPa SSE 17.7 km/h 24.1 km/h 90 % 0.0 mm 0 W/m2
05:50 9.1 °C 7.6 °C 999.9 hPa SSE 19.3 km/h 24.1 km/h 90 % 0.0 mm 0 W/m2
05:55 9.2 °C 7.6 °C 999.5 hPa South 8.0 km/h 32.2 km/h 90 % 0.0 mm 0 W/m2
06:00 9.2 °C 7.6 °C 999.5 hPa South 19.3 km/h 32.2 km/h 90 % 0.0 mm 0 W/m2
06:05 9.2 °C 7.6 °C 999.2 hPa South 12.9 km/h 20.9 km/h 90 % 0.0 mm 0 W/m2
06:10 9.1 °C 7.6 °C 998.9 hPa South 12.9 km/h 25.7 km/h 90 % 0.0 mm 0 W/m2
06:15 9.1 °C 7.6 °C 998.9 hPa SSE 20.9 km/h 25.7 km/h 90 % 0.0 mm 0 W/m2
06:20 9.1 °C 7.6 °C 998.9 hPa SSW 9.7 km/h 29.0 km/h 90 % 0.0 mm 0 W/m2
06:25 9.1 °C 7.6 °C 998.9 hPa SE 22.5 km/h 29.0 km/h 90 % 0.0 mm 0 W/m2
06:30 9.2 °C 7.6 °C 998.5 hPa South 30.6 km/h 30.6 km/h 90 % 0.0 mm 0 W/m2
06:35 9.2 °C 7.8 °C 998.5 hPa South 19.3 km/h 30.6 km/h 91 % 0.0 mm 0 W/m2
06:40 9.2 °C 7.8 °C 998.5 hPa SSE 19.3 km/h 30.6 km/h 91 % 0.0 mm 0 W/m2
06:45 9.3 °C 7.9 °C 998.2 hPa SSE 17.7 km/h 30.6 km/h 91 % 0.0 mm 0 W/m2
06:50 9.3 °C 7.9 °C 997.9 hPa SSE 11.3 km/h 30.6 km/h 91 % 0.0 mm 0 W/m2
06:55 9.3 °C 7.9 °C 997.9 hPa South 19.3 km/h 30.6 km/h 91 % 0.0 mm 0 W/m2
07:00 9.3 °C 7.9 °C 997.9 hPa SSE 16.1 km/h 30.6 km/h 91 % 0.0 mm 0 W/m2
07:05 9.4 °C 8.0 °C 997.5 hPa SSE 9.7 km/h 30.6 km/h 91 % 0.0 mm 0 W/m2
07:10 9.5 °C 8.0 °C 997.5 hPa SSE 16.1 km/h 35.4 km/h 91 % 0.0 mm 0 W/m2
07:15 9.6 °C 8.2 °C 997.2 hPa South 9.7 km/h 35.4 km/h 91 % 0.0 mm 0 W/m2
07:20 9.6 °C 8.1 °C 997.5 hPa South 33.8 km/h 35.4 km/h 90 % 0.0 mm 0 W/m2
07:25 9.7 °C 8.0 °C 997.2 hPa SSW 12.9 km/h 43.4 km/h 89 % 0.0 mm 0 W/m2
07:30 9.8 °C 7.9 °C 997.2 hPa South 20.9 km/h 43.4 km/h 88 % 0.0 mm 0 W/m2
07:35 9.8 °C 7.9 °C 997.2 hPa SSW 27.4 km/h 43.4 km/h 88 % 0.0 mm 0 W/m2
07:40 9.9 °C 7.8 °C 997.2 hPa SE 14.5 km/h 37.0 km/h 87 % 0.0 mm 0 W/m2
07:45 9.9 °C 7.7 °C 997.2 hPa South 20.9 km/h 41.8 km/h 86 % 0.0 mm 0 W/m2
07:50 10.0 °C 7.6 °C 997.2 hPa South 29.0 km/h 41.8 km/h 85 % 0.0 mm 0 W/m2
07:55 10.1 °C 7.5 °C 997.2 hPa SSE 16.1 km/h 41.8 km/h 84 % 0.0 mm 0 W/m2
08:00 10.1 °C 7.5 °C 997.2 hPa SSE 35.4 km/h 45.1 km/h 84 % 0.0 mm 0 W/m2
08:05 10.1 °C 7.5 °C 996.8 hPa South 24.1 km/h 57.9 km/h 84 % 0.0 mm 0 W/m2
08:10 10.1 °C 7.6 °C 996.8 hPa SSW 11.3 km/h 57.9 km/h 85 % 0.0 mm 0 W/m2
08:15 10.0 °C 7.8 °C 996.8 hPa South 35.4 km/h 45.1 km/h 86 % 0.3 mm 0 W/m2
08:20 9.9 °C 7.9 °C 996.5 hPa South 14.5 km/h 45.1 km/h 87 % 0.5 mm 0 W/m2
08:25 9.8 °C 7.9 °C 996.2 hPa SSE 25.7 km/h 38.6 km/h 88 % 0.5 mm 0 W/m2
08:30 9.7 °C 7.8 °C 996.2 hPa South 22.5 km/h 48.3 km/h 88 % 0.5 mm 0 W/m2
08:35 9.6 °C 7.8 °C 996.2 hPa SSE 38.6 km/h 48.3 km/h 89 % 0.5 mm 0 W/m2
08:40 9.4 °C 7.7 °C 996.2 hPa South 24.1 km/h 45.1 km/h 89 % 0.5 mm 0 W/m2
08:45 9.4 °C 7.7 °C 996.2 hPa South 19.3 km/h 41.8 km/h 89 % 0.5 mm 0 W/m2
08:50 9.3 °C 7.8 °C 996.2 hPa SSW 20.9 km/h 41.8 km/h 90 % 0.8 mm 0 W/m2
08:55 9.3 °C 7.7 °C 996.5 hPa SSE 20.9 km/h 37.0 km/h 90 % 0.8 mm 0 W/m2
09:00 9.2 °C 7.7 °C 996.2 hPa South 29.0 km/h 43.4 km/h 90 % 1.0 mm 0 W/m2
09:05 9.2 °C 7.6 °C 996.2 hPa SSE 25.7 km/h 43.4 km/h 90 % 1.0 mm 5 W/m2
09:10 9.1 °C 7.5 °C 996.2 hPa South 20.9 km/h 33.8 km/h 90 % 1.3 mm 5 W/m2
09:15 8.9 °C 7.4 °C 995.8 hPa SSE 16.1 km/h 37.0 km/h 90 % 1.3 mm 5 W/m2
09:20 8.8 °C 7.4 °C 995.8 hPa South 17.7 km/h 41.8 km/h 91 % 1.3 mm 5 W/m2
09:25 8.7 °C 7.3 °C 995.5 hPa SSE 29.0 km/h 41.8 km/h 91 % 1.3 mm 7 W/m2
09:30 8.6 °C 7.4 °C 995.1 hPa South 22.5 km/h 45.1 km/h 92 % 1.5 mm 7 W/m2
09:35 8.5 °C 7.3 °C 994.8 hPa SE 22.5 km/h 45.1 km/h 92 % 1.5 mm 12 W/m2
09:40 8.4 °C 7.2 °C 994.5 hPa South 24.1 km/h 43.4 km/h 92 % 1.5 mm 21 W/m2
09:45 8.4 °C 7.2 °C 994.5 hPa SSE 16.1 km/h 41.8 km/h 92 % 1.5 mm 23 W/m2
09:50 8.4 °C 7.2 °C 994.5 hPa SSE 24.1 km/h 41.8 km/h 92 % 1.3 mm 25 W/m2
09:55 8.3 °C 7.1 °C 994.1 hPa SSE 9.7 km/h 35.4 km/h 92 % 1.3 mm 30 W/m2
10:00 8.3 °C 7.3 °C 993.8 hPa South 27.4 km/h 38.6 km/h 93 % 1.0 mm 19 W/m2
10:05 8.4 °C 7.3 °C 993.8 hPa SE 19.3 km/h 38.6 km/h 93 % 1.0 mm 19 W/m2
10:10 8.4 °C 7.3 °C 993.8 hPa SSE 32.2 km/h 41.8 km/h 93 % 1.0 mm 14 W/m2
10:15 8.4 °C 7.3 °C 993.8 hPa South 35.4 km/h 41.8 km/h 93 % 1.0 mm 25 W/m2
10:20 8.4 °C 7.3 °C 993.5 hPa SSE 20.9 km/h 37.0 km/h 93 % 0.8 mm 33 W/m2
10:25 8.4 °C 7.4 °C 993.5 hPa SE 19.3 km/h 46.7 km/h 93 % 1.3 mm 18 W/m2
10:30 8.4 °C 7.5 °C 993.1 hPa SE 33.8 km/h 46.7 km/h 94 % 1.5 mm 21 W/m2
10:35 8.4 °C 7.5 °C 993.1 hPa SSE 32.2 km/h 46.7 km/h 94 % 1.5 mm 32 W/m2
10:40 8.5 °C 7.6 °C 993.1 hPa SSE 35.4 km/h 41.8 km/h 94 % 1.8 mm 42 W/m2
10:45 8.6 °C 7.6 °C 993.1 hPa South 16.1 km/h 41.8 km/h 94 % 2.0 mm 32 W/m2
10:50 8.6 °C 7.7 °C 992.8 hPa SSE 16.1 km/h 35.4 km/h 94 % 2.0 mm 54 W/m2
10:55 8.8 °C 7.9 °C 993.1 hPa SSW 14.5 km/h 33.8 km/h 94 % 2.3 mm 91 W/m2
11:00 9.0 °C 8.1 °C 993.1 hPa SSW 11.3 km/h 33.8 km/h 94 % 2.3 mm 95 W/m2
11:05 9.2 °C 8.3 °C 992.8 hPa South 12.9 km/h 32.2 km/h 94 % 2.3 mm 120 W/m2
11:10 9.4 °C 8.3 °C 992.8 hPa SSW 30.6 km/h 38.6 km/h 93 % 2.0 mm 141 W/m2
11:15 9.4 °C 8.2 °C 992.8 hPa SSW 16.1 km/h 38.6 km/h 92 % 1.8 mm 156 W/m2
11:20 9.5 °C 8.3 °C 992.4 hPa South 17.7 km/h 33.8 km/h 92 % 1.8 mm 169 W/m2
11:25 9.6 °C 8.2 °C 992.4 hPa South 24.1 km/h 40.2 km/h 91 % 1.5 mm 160 W/m2
11:30 9.7 °C 8.3 °C 992.4 hPa SSE 11.3 km/h 40.2 km/h 91 % 1.0 mm 181 W/m2
11:35 10.0 °C 8.6 °C 992.1 hPa SSE 20.9 km/h 35.4 km/h 91 % 0.5 mm 341 W/m2
11:40 10.4 °C 8.9 °C 992.1 hPa South 17.7 km/h 30.6 km/h 90 % 0.5 mm 399 W/m2
11:45 10.7 °C 8.8 °C 992.1 hPa South 16.1 km/h 37.0 km/h 88 % 0.3 mm 267 W/m2
11:50 10.7 °C 8.6 °C 991.8 hPa SSW 29.0 km/h 37.0 km/h 87 % 0.3 mm 135 W/m2
11:55 10.7 °C 8.8 °C 991.8 hPa SSE 19.3 km/h 37.0 km/h 88 % 0.0 mm 441 W/m2
12:00 10.7 °C 8.8 °C 991.8 hPa South 25.7 km/h 37.0 km/h 88 % 0.0 mm 128 W/m2
12:05 10.7 °C 8.8 °C 991.8 hPa South 22.5 km/h 51.5 km/h 88 % 0.0 mm 206 W/m2
12:10 10.7 °C 8.8 °C 991.8 hPa South 37.0 km/h 51.5 km/h 88 % 0.0 mm 251 W/m2
12:15 10.7 °C 8.8 °C 991.4 hPa South 20.9 km/h 45.1 km/h 88 % 0.0 mm 91 W/m2
12:20 10.5 °C 8.8 °C 991.4 hPa SSW 43.4 km/h 45.1 km/h 89 % 0.0 mm 111 W/m2
12:25 10.1 °C 8.5 °C 991.4 hPa SSE 16.1 km/h 45.1 km/h 90 % 0.5 mm 127 W/m2
12:30 9.9 °C 8.6 °C 991.1 hPa South 25.7 km/h 45.1 km/h 92 % 0.5 mm 341 W/m2
12:35 9.9 °C 8.9 °C 991.1 hPa SSW 24.1 km/h 35.4 km/h 93 % 0.5 mm 253 W/m2
12:40 10.0 °C 8.9 °C 990.7 hPa SSW 29.0 km/h 37.0 km/h 93 % 0.5 mm 107 W/m2
12:45 9.9 °C 8.9 °C 990.7 hPa South 22.5 km/h 37.0 km/h 93 % 0.5 mm 221 W/m2
12:50 10.1 °C 9.0 °C 990.7 hPa South 30.6 km/h 41.8 km/h 93 % 0.5 mm 216 W/m2
12:55 10.1 °C 9.0 °C 990.4 hPa SSW 16.1 km/h 41.8 km/h 93 % 0.5 mm 197 W/m2
13:00 10.2 °C 9.1 °C 990.4 hPa South 12.9 km/h 35.4 km/h 93 % 0.5 mm 325 W/m2
13:05 10.7 °C 9.4 °C 990.4 hPa South 9.7 km/h 30.6 km/h 92 % 0.5 mm 457 W/m2
13:10 10.4 °C 8.9 °C 990.4 hPa SW 16.1 km/h 30.6 km/h 90 % 0.5 mm 216 W/m2
13:15 10.4 °C 8.8 °C 990.4 hPa West 8.0 km/h 27.4 km/h 90 % 0.5 mm 179 W/m2
13:20 10.1 °C 8.5 °C 990.7 hPa WSW 22.5 km/h 24.1 km/h 90 % 0.5 mm 84 W/m2
13:25 9.8 °C 8.3 °C 990.7 hPa WSW 8.0 km/h 27.4 km/h 90 % 0.3 mm 51 W/m2
13:30 9.6 °C 8.2 °C 991.1 hPa WSW 9.7 km/h 27.4 km/h 91 % 0.3 mm 56 W/m2
13:35 9.4 °C 8.2 °C 991.1 hPa WSW 12.9 km/h 27.4 km/h 92 % 0.3 mm 141 W/m2
13:40 9.4 °C 8.4 °C 991.4 hPa WSW 17.7 km/h 27.4 km/h 93 % 0.3 mm 163 W/m2
13:45 9.6 °C 8.5 °C 991.8 hPa West 27.4 km/h 27.4 km/h 93 % 0.0 mm 83 W/m2
13:50 9.3 °C 8.0 °C 992.4 hPa WNW 40.2 km/h 54.7 km/h 92 % 0.5 mm 132 W/m2
13:55 8.6 °C 7.1 °C 992.8 hPa NNW 38.6 km/h 67.6 km/h 90 % 0.8 mm 93 W/m2
14:00 8.3 °C 6.9 °C 993.1 hPa WNW 14.5 km/h 69.2 km/h 91 % 1.0 mm 54 W/m2
14:05 8.3 °C 7.1 °C 993.5 hPa WNW 19.3 km/h 69.2 km/h 92 % 1.3 mm 74 W/m2
14:10 8.4 °C 7.4 °C 993.8 hPa WNW 29.0 km/h 51.5 km/h 93 % 1.3 mm 93 W/m2
14:15 8.4 °C 7.2 °C 994.1 hPa WNW 22.5 km/h 51.5 km/h 92 % 1.3 mm 120 W/m2
14:20 8.7 °C 7.3 °C 994.1 hPa West 16.1 km/h 53.1 km/h 91 % 1.3 mm 179 W/m2
14:25 8.8 °C 7.3 °C 994.5 hPa NW 14.5 km/h 53.1 km/h 90 % 1.3 mm 146 W/m2
14:30 9.0 °C 7.3 °C 994.8 hPa NW 16.1 km/h 53.1 km/h 89 % 1.3 mm 176 W/m2
14:35 9.2 °C 7.4 °C 994.8 hPa WNW 16.1 km/h 46.7 km/h 89 % 1.3 mm 257 W/m2
14:40 9.3 °C 7.4 °C 995.1 hPa West 29.0 km/h 53.1 km/h 88 % 1.3 mm 218 W/m2
14:45 9.3 °C 7.2 °C 995.5 hPa WNW 30.6 km/h 53.1 km/h 87 % 1.3 mm 172 W/m2
14:50 9.2 °C 7.2 °C 995.5 hPa West 20.9 km/h 49.9 km/h 87 % 0.5 mm 148 W/m2
14:55 9.3 °C 7.2 °C 995.5 hPa WSW 24.1 km/h 46.7 km/h 87 % 0.5 mm 128 W/m2
15:00 9.3 °C 7.2 °C 995.8 hPa West 20.9 km/h 46.7 km/h 87 % 0.3 mm 139 W/m2
15:05 9.4 °C 7.3 °C 996.2 hPa WNW 16.1 km/h 41.8 km/h 87 % 0.0 mm 176 W/m2
15:10 9.6 °C 7.7 °C 996.2 hPa NW 14.5 km/h 40.2 km/h 88 % 0.0 mm 132 W/m2
15:15 9.7 °C 7.6 °C 996.5 hPa NW 29.0 km/h 38.6 km/h 87 % 0.0 mm 234 W/m2
15:20 9.8 °C 7.8 °C 996.8 hPa NW 19.3 km/h 38.6 km/h 87 % 0.0 mm 137 W/m2
15:25 9.5 °C 7.6 °C 997.2 hPa WNW 25.7 km/h 46.7 km/h 88 % 0.0 mm 204 W/m2
15:30 9.3 °C 7.4 °C 997.2 hPa NW 24.1 km/h 46.7 km/h 88 % 0.0 mm 146 W/m2
15:35 9.4 °C 7.6 °C 997.5 hPa NW 29.0 km/h 48.3 km/h 88 % 0.0 mm 410 W/m2
15:40 10.0 °C 7.6 °C 997.5 hPa West 12.9 km/h 48.3 km/h 85 % 0.0 mm 357 W/m2
15:45 10.3 °C 7.9 °C 997.9 hPa WNW 27.4 km/h 37.0 km/h 85 % 0.0 mm 294 W/m2
15:50 10.2 °C 7.6 °C 997.9 hPa WNW 9.7 km/h 40.2 km/h 84 % 0.0 mm 111 W/m2
15:55 9.8 °C 7.4 °C 998.5 hPa WNW 20.9 km/h 45.1 km/h 85 % 0.0 mm 25 W/m2
16:00 8.8 °C 6.4 °C 998.2 hPa WNW 17.7 km/h 45.1 km/h 85 % 0.3 mm 158 W/m2
16:05 8.4 °C 6.3 °C 998.5 hPa WSW 17.7 km/h 37.0 km/h 87 % 0.3 mm 63 W/m2
16:10 8.6 °C 6.7 °C 998.5 hPa WNW 16.1 km/h 37.0 km/h 88 % 0.3 mm 218 W/m2
16:15 9.0 °C 7.1 °C 998.5 hPa WNW 9.7 km/h 30.6 km/h 88 % 0.3 mm 193 W/m2
16:20 9.2 °C 7.3 °C 998.9 hPa West 9.7 km/h 30.6 km/h 88 % 0.3 mm 185 W/m2
16:25 9.3 °C 7.4 °C 998.9 hPa West 20.9 km/h 30.6 km/h 88 % 0.3 mm 60 W/m2
16:30 9.1 °C 7.4 °C 998.9 hPa WNW 8.0 km/h 25.7 km/h 89 % 0.3 mm 107 W/m2
16:35 9.2 °C 7.5 °C 999.2 hPa West 6.4 km/h 27.4 km/h 89 % 0.3 mm 79 W/m2
16:40 9.5 °C 7.6 °C 999.2 hPa WSW 8.0 km/h 27.4 km/h 88 % 0.3 mm 125 W/m2
16:45 9.7 °C 7.7 °C 999.2 hPa West 14.5 km/h 25.7 km/h 87 % 0.3 mm 93 W/m2
16:50 9.8 °C 7.7 °C 999.2 hPa West 8.0 km/h 25.7 km/h 87 % 0.3 mm 67 W/m2
16:55 9.8 °C 7.7 °C 999.5 hPa West 9.7 km/h 24.1 km/h 87 % 0.3 mm 58 W/m2
17:00 9.7 °C 7.7 °C 999.5 hPa West 11.3 km/h 24.1 km/h 87 % 0.0 mm 58 W/m2
17:05 9.6 °C 7.4 °C 999.5 hPa West 12.9 km/h 25.7 km/h 86 % 0.0 mm 53 W/m2
17:10 9.7 °C 7.6 °C 999.5 hPa WSW 6.4 km/h 25.7 km/h 87 % 0.3 mm 62 W/m2
17:15 9.7 °C 7.5 °C 999.5 hPa WNW 16.1 km/h 25.7 km/h 86 % 0.3 mm 42 W/m2
17:20 9.7 °C 7.4 °C 999.9 hPa WNW 6.4 km/h 25.7 km/h 86 % 0.3 mm 18 W/m2
17:25 9.5 °C 7.4 °C 999.9 hPa West 12.9 km/h 25.7 km/h 87 % 0.3 mm 19 W/m2
17:30 9.4 °C 7.3 °C 1000.2 hPa WNW 8.0 km/h 25.7 km/h 87 % 0.3 mm 37 W/m2
17:35 9.3 °C 7.4 °C 999.9 hPa NW 9.7 km/h 25.7 km/h 88 % 0.3 mm 88 W/m2
17:40 9.2 °C 7.2 °C 1000.2 hPa WSW 11.3 km/h 25.7 km/h 87 % 0.3 mm 26 W/m2
17:45 9.1 °C 7.1 °C 1000.2 hPa WNW 12.9 km/h 25.7 km/h 87 % 0.3 mm 19 W/m2
17:50 9.1 °C 7.1 °C 1000.2 hPa West 11.3 km/h 25.7 km/h 87 % 0.3 mm 16 W/m2
17:55 9.1 °C 7.1 °C 1000.2 hPa West 9.7 km/h 22.5 km/h 87 % 0.3 mm 11 W/m2
18:00 9.1 °C 7.1 °C 1000.6 hPa West 19.3 km/h 25.7 km/h 87 % 0.3 mm 7 W/m2
18:05 9.2 °C 7.0 °C 1000.6 hPa WSW 4.8 km/h 29.0 km/h 86 % 0.3 mm 5 W/m2
18:10 9.3 °C 7.1 °C 1000.6 hPa West 9.7 km/h 29.0 km/h 86 % 0.0 mm 0 W/m2
18:15 9.3 °C 7.1 °C 1000.6 hPa West 20.9 km/h 29.0 km/h 86 % 0.0 mm 0 W/m2
18:20 9.2 °C 6.8 °C 1000.6 hPa WSW 8.0 km/h 30.6 km/h 85 % 0.0 mm 0 W/m2
18:25 9.0 °C 6.8 °C 1000.6 hPa WSW 14.5 km/h 30.6 km/h 86 % 0.0 mm 0 W/m2
18:30 8.9 °C 6.8 °C 1000.6 hPa West 1.6 km/h 24.1 km/h 87 % 0.0 mm 0 W/m2
18:35 8.7 °C 6.7 °C 1000.6 hPa WSW 9.7 km/h 22.5 km/h 87 % 0.0 mm 0 W/m2
18:40 8.7 °C 6.6 °C 1000.9 hPa SW 11.3 km/h 24.1 km/h 87 % 0.0 mm 0 W/m2
18:45 8.6 °C 6.4 °C 1001.2 hPa SW 14.5 km/h 24.1 km/h 86 % 0.0 mm 0 W/m2
18:50 8.6 °C 6.3 °C 1001.2 hPa WSW 12.9 km/h 22.5 km/h 86 % 0.0 mm 0 W/m2
18:55 8.6 °C 6.3 °C 1001.2 hPa SW 9.7 km/h 22.5 km/h 86 % 0.0 mm 0 W/m2
19:00 8.4 °C 6.4 °C 1001.2 hPa WSW 11.3 km/h 20.9 km/h 87 % 0.0 mm 0 W/m2
19:05 8.4 °C 6.3 °C 1001.2 hPa South 8.0 km/h 20.9 km/h 87 % 0.0 mm 0 W/m2
19:10 8.3 °C 6.3 °C 1001.2 hPa SSW 11.3 km/h 20.9 km/h 87 % 0.0 mm 0 W/m2
19:15 8.2 °C 6.1 °C 1001.2 hPa WSW 9.7 km/h 19.3 km/h 87 % 0.0 mm 0 W/m2
19:20 8.2 °C 6.3 °C 1001.2 hPa SW 8.0 km/h 19.3 km/h 88 % 0.0 mm 0 W/m2
19:25 8.2 °C 6.3 °C 1001.6 hPa SW 8.0 km/h 20.9 km/h 88 % 0.0 mm 0 W/m2
19:30 8.1 °C 6.4 °C 1001.6 hPa West 14.5 km/h 20.9 km/h 89 % 0.0 mm 0 W/m2
19:35 8.1 °C 6.4 °C 1001.2 hPa SW 3.2 km/h 20.9 km/h 89 % 0.0 mm 0 W/m2
19:40 8.1 °C 6.4 °C 1001.2 hPa South 4.8 km/h 17.7 km/h 89 % 0.0 mm 0 W/m2
19:45 8.1 °C 6.4 °C 1001.2 hPa WSW 11.3 km/h 17.7 km/h 89 % 0.0 mm 0 W/m2
19:50 8.1 °C 6.4 °C 1000.9 hPa SW 1.6 km/h 16.1 km/h 89 % 0.0 mm 0 W/m2
19:55 8.1 °C 6.4 °C 1000.9 hPa SW 8.0 km/h 17.7 km/h 89 % 0.0 mm 0 W/m2
20:00 8.1 °C 6.4 °C 1000.6 hPa SSW 1.6 km/h 17.7 km/h 89 % 0.0 mm 0 W/m2
20:05 8.1 °C 6.4 °C 1000.6 hPa South 6.4 km/h 11.3 km/h 89 % 0.0 mm 0 W/m2
20:10 8.1 °C 6.6 °C 1000.2 hPa South 4.8 km/h 11.3 km/h 90 % 0.0 mm 0 W/m2
20:15 8.1 °C 6.5 °C 1000.2 hPa SSW 6.4 km/h 12.9 km/h 90 % 0.0 mm 0 W/m2
20:20 7.9 °C 6.4 °C 1000.6 hPa SSE 3.2 km/h 12.9 km/h 90 % 0.0 mm 0 W/m2
20:25 7.9 °C 6.6 °C 1000.6 hPa SW 6.4 km/h 11.3 km/h 91 % 0.0 mm 0 W/m2
20:30 7.9 °C 6.5 °C 1000.2 hPa South 6.4 km/h 11.3 km/h 91 % 0.0 mm 0 W/m2
20:35 7.8 °C 6.6 °C 1000.2 hPa South 4.8 km/h 11.3 km/h 92 % 0.0 mm 0 W/m2
20:40 7.8 °C 6.6 °C 999.9 hPa South 3.2 km/h 11.3 km/h 92 % 0.0 mm 0 W/m2
20:45 7.8 °C 6.6 °C 1000.2 hPa South 8.0 km/h 11.3 km/h 92 % 0.0 mm 0 W/m2
20:50 7.8 °C 6.6 °C 1000.2 hPa SSW 6.4 km/h 11.3 km/h 92 % 0.0 mm 0 W/m2
20:55 7.9 °C 6.7 °C 1000.2 hPa SSW 14.5 km/h 16.1 km/h 92 % 0.0 mm 0 W/m2
21:00 7.9 °C 6.7 °C 1000.2 hPa South 14.5 km/h 16.1 km/h 92 % 0.0 mm 0 W/m2
21:05 8.0 °C 6.8 °C 1000.6 hPa South 12.9 km/h 19.3 km/h 92 % 0.0 mm 0 W/m2
21:10 8.1 °C 6.8 °C 1000.2 hPa South 8.0 km/h 20.9 km/h 92 % 0.0 mm 0 W/m2
21:15 8.1 °C 6.9 °C 1000.2 hPa South 4.8 km/h 20.9 km/h 92 % 0.0 mm 0 W/m2
21:20 8.1 °C 6.7 °C 1000.2 hPa SSW 12.9 km/h 25.7 km/h 91 % 0.0 mm 0 W/m2
21:25 8.2 °C 6.8 °C 999.9 hPa West 8.0 km/h 25.7 km/h 91 % 0.0 mm 0 W/m2
21:30 8.2 °C 6.8 °C 999.9 hPa South 12.9 km/h 20.9 km/h 91 % 0.0 mm 0 W/m2
21:35 8.2 °C 6.8 °C 999.5 hPa South 6.4 km/h 17.7 km/h 91 % 0.0 mm 0 W/m2
21:40 8.2 °C 6.8 °C 999.5 hPa SSW 11.3 km/h 16.1 km/h 91 % 0.0 mm 0 W/m2
21:45 8.2 °C 6.8 °C 999.2 hPa SSW 6.4 km/h 17.7 km/h 91 % 0.0 mm 0 W/m2
21:50 8.2 °C 6.8 °C 999.2 hPa South 8.0 km/h 17.7 km/h 91 % 0.0 mm 0 W/m2
21:55 8.3 °C 6.9 °C 999.2 hPa SSW 8.0 km/h 19.3 km/h 91 % 0.0 mm 0 W/m2
22:00 8.3 °C 6.9 °C 999.2 hPa SSW 6.4 km/h 19.3 km/h 91 % 0.0 mm 0 W/m2
22:05 8.3 °C 7.1 °C 999.2 hPa South 11.3 km/h 16.1 km/h 92 % 0.0 mm 0 W/m2
22:10 8.4 °C 7.2 °C 998.9 hPa South 9.7 km/h 16.1 km/h 92 % 0.0 mm 0 W/m2
22:15 8.4 °C 7.2 °C 998.9 hPa SW 8.0 km/h 22.5 km/h 92 % 0.0 mm 0 W/m2
22:20 8.5 °C 7.3 °C 998.9 hPa South 9.7 km/h 22.5 km/h 92 % 0.0 mm 0 W/m2
22:25 8.6 °C 7.3 °C 998.9 hPa SSW 14.5 km/h 22.5 km/h 92 % 0.0 mm 0 W/m2
22:30 8.7 °C 7.3 °C 998.9 hPa South 11.3 km/h 20.9 km/h 91 % 0.0 mm 0 W/m2
22:35 8.8 °C 7.4 °C 998.5 hPa South 14.5 km/h 22.5 km/h 91 % 0.0 mm 0 W/m2
22:40 8.8 °C 7.3 °C 998.2 hPa South 12.9 km/h 22.5 km/h 90 % 0.0 mm 0 W/m2
22:45 8.9 °C 7.4 °C 997.9 hPa South 12.9 km/h 24.1 km/h 90 % 0.0 mm 0 W/m2
22:50 9.1 °C 7.3 °C 997.9 hPa SW 11.3 km/h 24.1 km/h 89 % 0.0 mm 0 W/m2
22:55 9.1 °C 7.4 °C 997.2 hPa South 16.1 km/h 20.9 km/h 89 % 0.0 mm 0 W/m2
23:00 9.2 °C 7.3 °C 997.2 hPa SE 12.9 km/h 22.5 km/h 88 % 0.0 mm 0 W/m2
23:05 9.2 °C 7.4 °C 996.8 hPa South 11.3 km/h 25.7 km/h 89 % 0.0 mm 0 W/m2
23:10 9.1 °C 7.4 °C 996.5 hPa South 12.9 km/h 25.7 km/h 89 % 0.0 mm 0 W/m2
23:15 9.1 °C 7.4 °C 996.2 hPa South 19.3 km/h 27.4 km/h 89 % 0.0 mm 0 W/m2
23:20 9.1 °C 7.5 °C 996.2 hPa SSE 16.1 km/h 27.4 km/h 90 % 0.0 mm 0 W/m2
23:25 9.1 °C 7.5 °C 995.8 hPa South 11.3 km/h 25.7 km/h 90 % 0.0 mm 0 W/m2
23:30 9.0 °C 7.4 °C 995.8 hPa SSE 9.7 km/h 22.5 km/h 90 % 0.0 mm 0 W/m2
23:35 9.0 °C 7.4 °C 996.2 hPa South 16.1 km/h 32.2 km/h 90 % 0.0 mm 0 W/m2
23:40 9.1 °C 7.7 °C 996.2 hPa South 12.9 km/h 32.2 km/h 91 % 0.0 mm 0 W/m2
23:45 9.1 °C 7.7 °C 996.2 hPa SSW 25.7 km/h 33.8 km/h 91 % 0.0 mm 0 W/m2
23:50 9.1 °C 7.7 °C 996.2 hPa SSW 22.5 km/h 33.8 km/h 91 % 0.0 mm 0 W/m2
23:55 9.1 °C 7.7 °C 996.2 hPa SSW 22.5 km/h 33.8 km/h 91 % 0.0 mm 0 W/m2
Avec l'autorisation de Weather Underground - 1.75 mb